Terminal Aerodrome Forecast
Issued by NWS Wichita, KS

Home | Current Version | Previous Version | Text Only | Print | Product List | Glossary Off
Versions: 1 2 3 4 5 6 7 8 9 10 11 12 13 14 15 16 17 18 19 20 21 22 23 24

000
FTUS43 KICT 241953 AAA
TAFICT
TAF AMD
KICT 241953Z 2420/2518 15010KT P6SM VCSH OVC030
      TEMPO 2420/2422 -SHRA BKN020
     FM242300 16010KT P6SM BKN012 OVC100
     FM250300 15005KT 3SM BR BKN006
     FM251500 18013KT P6SM SCT006 BKN025=

USA.gov is the U.S. government's official web portal to all federal, state and local government web resources and services.